Time;durP1;ratioP1;P1;durP2;ratioP2;P2;SDS_P1;SDS_P2;PMS_P1;PMS_P2;Temp;Humidity;BMP_temperature;BMP_pressure;BME280_temperature;BME280_humidity;BME280_pressure;Samples;Min_cycle;Max_cycle;Signal;HPM_P1;HPM_P2
2022/07/27 00:00:46;;;;;;;3.13;0.68;;;;;;;16.62;nan;100517.63;2047446;29;20043;-66
2022/07/27 00:01:51;;;;;;;3.00;0.60;;;;;;;16.57;nan;100519.69;2047972;28;20062;-66
2022/07/27 00:02:58;;;;;;;6.35;0.85;;;;;;;16.63;nan;100521.13;2054324;28;20047;-66
2022/07/27 00:04:04;;;;;;;3.10;0.68;;;;;;;16.58;nan;100516.69;2053768;28;20644;-66
2022/07/27 00:05:06;;;;;;;5.47;0.80;;;;;;;16.60;nan;100519.84;2039701;29;20060;-66
2022/07/27 00:06:08;;;;;;;4.78;0.90;;;;;;;16.64;nan;100525.44;2039619;29;20062;-66
2022/07/27 00:07:12;;;;;;;3.35;1.50;;;;;;;16.64;nan;100520.78;2046471;28;20039;-66
2022/07/27 00:08:19;;;;;;;3.33;0.95;;;;;;;16.62;nan;100522.25;2055333;28;20043;-66
2022/07/27 00:09:21;;;;;;;3.70;0.80;;;;;;;16.62;nan;100520.34;2038789;29;20435;-66
2022/07/27 00:10:28;;;;;;;1.15;0.60;;;;;;;16.64;nan;100514.56;2039745;28;20578;-66
2022/07/27 00:11:32;;;;;;;4.82;0.90;;;;;;;16.67;nan;100516.66;2054860;28;20403;-66
2022/07/27 00:12:34;;;;;;;4.60;1.08;;;;;;;16.66;nan;100512.34;2038701;29;20747;-67
2022/07/27 00:13:39;;;;;;;5.00;0.80;;;;;;;16.59;nan;100517.47;2031870;29;20056;-66
2022/07/27 00:14:46;;;;;;;2.25;0.80;;;;;;;16.53;nan;100511.41;2038914;29;20407;-66
2022/07/27 00:15:55;;;;;;;5.60;0.98;;;;;;;16.53;nan;100516.03;2046814;28;20502;-66
2022/07/27 00:17:00;;;;;;;2.47;0.90;;;;;;;16.50;nan;100513.94;2048703;28;20557;-65
2022/07/27 00:18:08;;;;;;;2.40;0.75;;;;;;;16.39;nan;100508.84;2055403;28;20650;-66
2022/07/27 00:19:11;;;;;;;5.07;0.90;;;;;;;16.48;nan;100510.75;2055053;28;20054;-66
2022/07/27 00:20:15;;;;;;;6.45;0.75;;;;;;;16.45;nan;100512.19;2049598;28;20065;-66
2022/07/27 00:21:18;;;;;;;10.07;1.10;;;;;;;16.41;nan;100517.44;2039287;29;20056;-67
2022/07/27 00:22:24;;;;;;;9.85;1.23;;;;;;;16.38;nan;100517.28;2030873;29;20627;-65
2022/07/27 00:23:30;;;;;;;2.88;0.70;;;;;;;16.42;nan;100516.34;2019965;29;20446;-67
2022/07/27 00:24:38;;;;;;;2.38;0.68;;;;;;;16.42;nan;100516.34;2046282;28;20055;-66
2022/07/27 00:25:44;;;;;;;6.88;0.98;;;;;;;16.48;nan;100516.97;2047340;29;20051;-66
2022/07/27 00:26:51;;;;;;;4.47;0.80;;;;;;;16.51;nan;100520.97;2047316;29;20065;-65
2022/07/27 00:27:59;;;;;;;5.03;1.00;;;;;;;16.47;nan;100520.03;2039864;29;20066;-67
2022/07/27 00:29:05;;;;;;;5.90;0.95;;;;;;;16.48;nan;100516.97;2040757;29;20062;-63
2022/07/27 00:30:09;;;;;;;4.85;1.00;;;;;;;16.45;nan;100518.41;2054965;28;20057;-65
2022/07/27 00:31:18;;;;;;;4.10;1.00;;;;;;;16.43;nan;100519.84;2053859;28;20423;-66
2022/07/27 00:32:21;;;;;;;6.28;1.05;;;;;;;16.44;nan;100518.72;2039148;29;20078;-66
2022/07/27 00:33:23;;;;;;;4.50;1.00;;;;;;;16.49;nan;100517.75;2039850;28;20499;-67
2022/07/27 00:34:39;;;;;;;2.75;0.82;;;;;;;16.46;nan;100519.22;2045993;29;20055;-66
2022/07/27 00:35:45;;;;;;;2.40;1.05;;;;;;;16.50;nan;100520.16;2049098;28;20051;-66
2022/07/27 00:36:55;;;;;;;3.15;0.75;;;;;;;16.50;nan;100522.09;2046949;29;20055;-66
2022/07/27 00:38:01;;;;;;;4.93;1.75;;;;;;;16.50;nan;100519.38;2047468;29;20035;-66
2022/07/27 00:39:06;;;;;;;1.67;0.60;;;;;;;16.46;nan;100521.94;2050836;28;20047;-66
2022/07/27 00:40:10;;;;;;;5.32;1.02;;;;;;;16.42;nan;100524.50;2055392;28;20046;-66
2022/07/27 00:41:17;;;;;;;5.18;0.90;;;;;;;16.47;nan;100514.59;2055299;28;20043;-65
2022/07/27 00:42:26;;;;;;;4.72;0.90;;;;;;;16.48;nan;100516.97;2046694;29;20050;-67
2022/07/27 00:43:29;;;;;;;3.22;0.73;;;;;;;16.48;nan;100524.31;2047858;28;20035;-65
2022/07/27 00:44:37;;;;;;;3.38;0.85;;;;;;;16.46;nan;100519.22;2047024;29;20055;-65
2022/07/27 00:45:43;;;;;;;5.05;0.80;;;;;;;16.47;nan;100520.03;2048281;28;20047;-66
2022/07/27 00:46:49;;;;;;;4.18;0.90;;;;;;;16.40;nan;100521.28;2055326;28;20057;-66
2022/07/27 00:47:57;;;;;;;2.83;0.80;;;;;;;16.38;nan;100523.50;2047047;29;20035;-66
2022/07/27 00:48:59;;;;;;;2.10;0.88;;;;;;;16.32;nan;100524.78;2038177;29;20095;-66
2022/07/27 00:50:02;;;;;;;3.55;0.73;;;;;;;16.37;nan;100519.22;2046666;28;20054;-67
2022/07/27 00:51:10;;;;;;;5.75;2.00;;;;;;;16.41;nan;100522.88;2052533;28;20066;-68
2022/07/27 00:52:15;;;;;;;4.53;2.17;;;;;;;16.41;nan;100525.59;2047382;29;20055;-65
2022/07/27 00:53:20;;;;;;;4.95;1.95;;;;;;;16.42;nan;100524.50;2046607;29;20059;-66
2022/07/27 00:54:23;;;;;;;5.50;1.42;;;;;;;16.36;nan;100525.75;2034734;29;20055;-65
2022/07/27 00:55:30;;;;;;;5.47;1.20;;;;;;;16.29;nan;100525.41;2046926;29;20047;-67
2022/07/27 00:56:33;;;;;;;3.33;1.55;;;;;;;16.37;nan;100521.13;2048241;28;20051;-66
2022/07/27 00:57:41;;;;;;;3.33;0.93;;;;;;;16.37;nan;100527.34;2054453;28;20043;-66
2022/07/27 00:58:50;;;;;;;6.60;1.00;;;;;;;16.38;nan;100528.94;2055236;28;20702;-66
2022/07/27 00:59:57;;;;;;;4.85;1.38;;;;;;;16.38;nan;100534.38;2055194;28;20046;-66
2022/07/27 01:01:06;;;;;;;4.93;0.93;;;;;;;16.37;nan;100526.56;2045854;29;20050;-66
2022/07/27 01:02:12;;;;;;;4.72;0.88;;;;;;;16.27;nan;100529.56;2039944;29;20424;-66
2022/07/27 01:03:14;;;;;;;4.82;1.00;;;;;;;16.20;nan;100532.75;2039881;29;20147;-67
2022/07/27 01:04:21;;;;;;;4.28;0.98;;;;;;;16.20;nan;100530.84;2039842;29;20051;-67
2022/07/27 01:05:24;;;;;;;3.90;0.98;;;;;;;16.17;nan;100527.94;2045875;29;20062;-68
2022/07/27 01:06:27;;;;;;;4.25;0.90;;;;;;;16.18;nan;100522.22;2039105;29;20403;-65
2022/07/27 01:07:34;;;;;;;4.85;1.10;;;;;;;16.22;nan;100525.09;2039528;29;20557;-66
2022/07/27 01:08:36;;;;;;;7.35;2.13;;;;;;;16.24;nan;100522.88;2047409;28;20043;-65
2022/07/27 01:09:58;;;;;;;9.07;4.95;;;;;;;16.16;nan;100537.22;2046580;29;20063;-66
2022/07/27 01:11:03;;;;;;;5.25;2.90;;;;;;;16.16;nan;100537.22;2051340;28;20415;-67
2022/07/27 01:12:11;;;;;;;5.97;2.15;;;;;;;16.20;nan;100535.44;2055446;28;20046;-67
2022/07/27 01:13:20;;;;;;;6.47;1.70;;;;;;;16.25;nan;100540.75;2049781;28;20059;-66
2022/07/27 01:14:25;;;;;;;4.03;1.08;;;;;;;16.28;nan;100534.69;2056932;28;20051;-67
2022/07/27 01:15:37;;;;;;;5.32;1.33;;;;;;;16.22;nan;100536.75;2057595;28;20054;-67
2022/07/27 01:16:42;;;;;;;5.60;1.02;;;;;;;16.20;nan;100532.75;2055937;28;20143;-68
2022/07/27 01:17:49;;;;;;;4.40;0.95;;;;;;;16.21;nan;100542.50;2056651;28;20043;-68
2022/07/27 01:18:56;;;;;;;5.40;0.95;;;;;;;16.22;nan;100541.38;2048845;29;20039;-67
2022/07/27 01:20:02;;;;;;;4.38;1.75;;;;;;;16.19;nan;100542.00;2048861;28;20146;-67
2022/07/27 01:21:09;;;;;;;4.97;0.90;;;;;;;16.24;nan;100536.44;2047606;29;20055;-67
2022/07/27 01:22:13;;;;;;;4.55;1.08;;;;;;;16.18;nan;100541.22;2043870;29;20059;-66
2022/07/27 01:23:27;;;;;;;7.57;1.20;;;;;;;16.22;nan;100533.22;2041257;29;20063;-64
2022/07/27 01:24:36;;;;;;;3.60;1.23;;;;;;;16.17;nan;100539.63;2030925;29;20047;-66
2022/07/27 01:25:42;;;;;;;4.82;1.00;;;;;;;16.18;nan;100540.41;2048867;29;20055;-66
2022/07/27 01:26:48;;;;;;;5.93;1.20;;;;;;;16.24;nan;100531.00;2048779;28;20062;-67
2022/07/27 01:27:52;;;;;;;4.75;1.00;;;;;;;16.30;nan;100537.88;2047981;29;20043;-65
2022/07/27 01:28:57;;;;;;;4.53;1.13;;;;;;;16.32;nan;100529.41;2053563;28;20046;-66
2022/07/27 01:30:25;;;;;;;4.97;0.98;;;;;;;16.33;nan;100534.53;2056444;28;20556;-66
2022/07/27 01:31:28;;;;;;;5.13;0.90;;;;;;;16.31;nan;100534.03;2056485;28;20402;-66
2022/07/27 01:32:34;;;;;;;4.30;1.00;;;;;;;16.31;nan;100533.25;2048097;28;20062;-66
2022/07/27 01:33:38;;;;;;;3.35;0.93;;;;;;;16.31;nan;100534.03;2040722;29;20055;-66
2022/07/27 01:34:43;;;;;;;6.03;1.15;;;;;;;16.33;nan;100536.44;2049323;28;20051;-66
2022/07/27 01:35:49;;;;;;;4.50;0.95;;;;;;;16.29;nan;100532.75;2055845;28;20049;-67
2022/07/27 01:36:53;;;;;;;4.57;0.73;;;;;;;16.29;nan;100525.41;2048232;29;20047;-67
2022/07/27 01:38:01;;;;;;;5.43;0.90;;;;;;;16.29;nan;100532.75;2047877;29;20043;-66
2022/07/27 01:39:06;;;;;;;6.25;1.48;;;;;;;16.27;nan;100527.66;2048289;29;20054;-66
2022/07/27 01:40:08;;;;;;;2.33;0.95;;;;;;;16.29;nan;100532.75;2044751;29;20399;-66
2022/07/27 01:41:14;;;;;;;2.53;1.00;;;;;;;16.30;nan;100526.22;2048656;28;20051;-66
2022/07/27 01:42:25;;;;;;;4.25;0.98;;;;;;;16.21;nan;100526.22;2050758;28;20147;-64
2022/07/27 01:43:27;;;;;;;7.45;1.38;;;;;;;16.21;nan;100521.59;2055985;28;20051;-66
2022/07/27 01:44:31;;;;;;;4.32;1.08;;;;;;;16.16;nan;100519.00;2048406;29;20046;-67
2022/07/27 01:45:36;;;;;;;2.20;1.00;;;;;;;16.22;nan;100520.47;2040708;29;20055;-66
2022/07/27 01:46:46;;;;;;;6.25;1.05;;;;;;;16.25;nan;100527.19;2049707;28;20051;-65
2022/07/27 01:47:49;;;;;;;7.45;1.00;;;;;;;16.21;nan;100521.59;2056324;28;20058;-66
2022/07/27 01:48:54;;;;;;;5.00;0.93;;;;;;;16.17;nan;100526.06;2048457;29;20051;-66
2022/07/27 01:49:59;;;;;;;4.28;0.85;;;;;;;16.19;nan;100525.72;2048081;28;20051;-66
2022/07/27 01:51:07;;;;;;;6.15;0.90;;;;;;;16.17;nan;100527.94;2047897;29;20364;-66
2022/07/27 01:52:12;;;;;;;3.42;0.95;;;;;;;16.16;nan;100529.06;2055106;28;20058;-66
2022/07/27 01:53:17;;;;;;;9.02;1.10;;;;;;;16.19;nan;100520.31;2064003;28;20054;-67
2022/07/27 01:54:21;;;;;;;4.15;1.00;;;;;;;16.21;nan;100523.50;2048610;28;20130;-67
2022/07/27 01:55:26;;;;;;;4.57;0.90;;;;;;;16.24;nan;100522.88;2055385;28;20051;-66
2022/07/27 01:56:29;;;;;;;9.23;0.93;;;;;;;16.22;nan;100519.66;2048403;29;20533;-66
2022/07/27 01:57:31;;;;;;;4.53;1.05;;;;;;;16.20;nan;100521.88;2040760;29;20063;-66
2022/07/27 01:58:37;;;;;;;3.80;1.10;;;;;;;16.21;nan;100528.94;2040065;29;20525;-66
2022/07/27 01:59:44;;;;;;;4.07;0.93;;;;;;;16.15;nan;100527.50;2031797;29;20048;-66
2022/07/27 02:00:52;;;;;;;3.85;0.85;;;;;;;16.14;nan;100531.28;2035918;29;20126;-66
2022/07/27 02:01:56;;;;;;;8.05;1.35;;;;;;;16.05;nan;100527.78;2052045;28;20042;-66
2022/07/27 02:02:58;;;;;;;4.38;0.90;;;;;;;16.07;nan;100522.84;2047839;29;20046;-66
2022/07/27 02:04:01;;;;;;;6.20;1.05;;;;;;;16.11;nan;100523.78;2048135;28;20051;-66
2022/07/27 02:05:06;;;;;;;4.32;1.00;;;;;;;16.09;nan;100524.13;2055838;28;20042;-66
2022/07/27 02:06:10;;;;;;;10.90;1.35;;;;;;;16.12;nan;100525.41;2055651;28;20053;-66
2022/07/27 02:07:20;;;;;;;4.35;1.25;;;;;;;16.14;nan;100525.88;2047809;29;20051;-66
2022/07/27 02:08:24;;;;;;;3.10;1.00;;;;;;;16.12;nan;100533.53;2048895;28;20488;-66
2022/07/27 02:09:29;;;;;;;7.03;1.75;;;;;;;16.16;nan;100531.78;2055948;28;20047;-67
2022/07/27 02:12:34;;;;;;;3.15;0.88;;;;;;;16.12;nan;100530.81;2056188;28;20062;-66
2022/07/27 02:13:20;;;;;;;3.22;0.90;;;;;;;16.06;nan;100534.81;2053714;28;20057;-66
2022/07/27 02:14:29;;;;;;;2.15;0.90;;;;;;;16.12;nan;100522.69;2047444;29;20507;-66
2022/07/27 02:15:40;;;;;;;4.47;0.82;;;;;;;16.10;nan;100522.19;2050601;28;20056;-67
2022/07/27 02:16:47;;;;;;;3.15;1.10;;;;;;;16.04;nan;100523.47;2055866;28;20061;-66
2022/07/27 02:17:53;;;;;;;6.65;1.10;;;;;;;15.96;nan;100520.41;2056263;28;20050;-67
2022/07/27 02:18:56;;;;;;;2.50;1.05;;;;;;;16.01;nan;100519.47;2055403;28;20050;-66
2022/07/27 02:20:02;;;;;;;2.88;0.90;;;;;;;16.01;nan;100515.97;2047558;29;20058;-67
2022/07/27 02:21:05;;;;;;;2.35;1.10;;;;;;;16.02;nan;100517.56;2039944;29;20051;-67
2022/07/27 02:22:09;;;;;;;2.58;1.02;;;;;;;15.96;nan;100516.91;2047444;28;20489;-67
2022/07/27 02:23:11;;;;;;;7.75;1.17;;;;;;;16.00;nan;100512.44;2047939;28;20047;-67
2022/07/27 02:24:13;;;;;;;4.93;0.70;;;;;;;16.04;nan;100510.69;2048415;28;20039;-66
2022/07/27 02:25:18;;;;;;;7.35;1.10;;;;;;;16.02;nan;100514.88;2035211;29;20051;-66
2022/07/27 02:26:21;;;;;;;4.20;0.95;;;;;;;16.02;nan;100509.44;2048684;28;20388;-66
2022/07/27 02:27:26;;;;;;;2.55;0.60;;;;;;;15.93;nan;100510.19;2048071;28;20055;-64
2022/07/27 02:28:35;;;;;;;8.38;1.10;;;;;;;15.88;nan;100507.63;2049046;28;20039;-65
2022/07/27 02:29:40;;;;;;;6.60;1.05;;;;;;;15.93;nan;100507.50;2055416;28;20054;-66
2022/07/27 02:30:47;;;;;;;2.80;0.90;;;;;;;15.79;nan;100504.09;2056466;28;20069;-67
2022/07/27 02:31:53;;;;;;;3.28;1.25;;;;;;;15.81;nan;100511.94;2056046;28;20061;-66
2022/07/27 02:32:57;;;;;;;4.95;1.00;;;;;;;15.83;nan;100513.22;2047431;29;20047;-67
2022/07/27 02:34:02;;;;;;;3.83;0.90;;;;;;;;;;2048112;28;20512;-67
2022/07/27 02:35:14;;;;;;;1.95;0.80;;;;;;;;;;2056694;28;20520;-66
2022/07/27 02:36:19;;;;;;;4.90;0.77;;;;;;;;;;2056223;28;20129;-65
2022/07/27 02:37:24;;;;;;;6.05;1.20;;;;;;;;;;2039081;29;20055;-65
2022/07/27 02:38:28;;;;;;;3.00;0.90;;;;;;;;;;2041133;29;20043;-66
2022/07/27 02:39:32;;;;;;;4.30;1.00;;;;;;;;;;2048639;28;20043;-68
2022/07/27 02:40:35;;;;;;;3.20;1.00;;;;;;;15.71;nan;100516.53;2056106;28;20521;-67
2022/07/27 02:41:45;;;;;;;3.05;1.38;;;;;;;15.73;nan;100514.31;2056024;28;20051;-66
2022/07/27 02:42:47;;;;;;;4.72;0.93;;;;;;;15.68;nan;100511.72;2056931;28;20046;-66
2022/07/27 02:43:52;;;;;;;2.67;0.98;;;;;;;15.71;nan;100510.31;2031479;29;20063;-65
2022/07/27 02:44:55;;;;;;;2.70;1.02;;;;;;;15.75;nan;100516.69;2025696;29;20079;-67
2022/07/27 02:45:59;;;;;;;2.58;0.80;;;;;;;15.74;nan;100505.06;2039658;29;20056;-67
2022/07/27 02:47:03;;;;;;;2.67;1.10;;;;;;;15.78;nan;100509.84;2040578;29;20556;-67
2022/07/27 02:48:08;;;;;;;6.70;1.00;;;;;;;15.77;nan;100509.06;2047567;28;20051;-66
2022/07/27 02:49:11;;;;;;;4.53;0.93;;;;;;;15.75;nan;100516.69;2047697;29;20051;-68
2022/07/27 02:50:16;;;;;;;4.63;0.98;;;;;;;15.74;nan;100510.47;2031979;29;20547;-67
2022/07/27 02:51:18;;;;;;;4.28;0.90;;;;;;;15.69;nan;100507.09;2040508;28;20774;-66
2022/07/27 02:52:23;;;;;;;1.90;0.90;;;;;;;15.70;nan;100506.00;2056110;28;20553;-67
2022/07/27 02:53:30;;;;;;;3.53;1.10;;;;;;;15.67;nan;100510.13;2063442;28;20050;-67
2022/07/27 02:54:36;;;;;;;4.90;1.23;;;;;;;15.58;nan;100508.47;2061852;28;20406;-67
2022/07/27 02:55:43;;;;;;;1.58;0.77;;;;;;;15.59;nan;100508.16;2036555;29;20052;-67
2022/07/27 02:56:52;;;;;;;2.92;1.00;;;;;;;15.61;nan;100513.28;2033605;29;20066;-67
2022/07/27 02:57:54;;;;;;;5.32;0.90;;;;;;;15.58;nan;100514.69;2049359;28;20046;-67
2022/07/27 02:58:56;;;;;;;4.53;1.23;;;;;;;15.65;nan;100519.66;2055235;28;20047;-67
2022/07/27 02:59:59;;;;;;;4.90;1.00;;;;;;;15.65;nan;100511.53;2047747;29;20559;-66
2022/07/27 03:01:05;;;;;;;4.57;1.17;;;;;;;15.67;nan;100523.69;2031884;29;20056;-66
2022/07/27 03:02:12;;;;;;;4.55;1.13;;;;;;;15.63;nan;100517.25;2046903;28;20043;-66
2022/07/27 03:03:15;;;;;;;3.97;1.25;;;;;;;15.60;nan;100517.88;2047358;29;20047;-66
2022/07/27 03:04:18;;;;;;;3.75;1.20;;;;;;;15.57;nan;100515.00;2048418;28;20062;-68
2022/07/27 03:05:24;;;;;;;4.50;1.30;;;;;;;15.60;nan;100525.19;2055833;28;20047;-66
2022/07/27 03:06:37;;;;;;;3.72;1.00;;;;;;;15.64;nan;100526.19;2055666;28;20541;-65
2022/07/27 03:07:48;;;;;;;3.35;1.20;;;;;;;15.69;nan;100515.22;2056209;28;20053;-67
2022/07/27 03:08:53;;;;;;;6.45;1.25;;;;;;;15.69;nan;100524.16;2055734;28;20054;-65
2022/07/27 03:09:57;;;;;;;6.25;1.13;;;;;;;15.61;nan;100521.41;2047682;29;20058;-66
2022/07/27 03:11:04;;;;;;;4.72;1.33;;;;;;;15.62;nan;100523.00;2048685;28;20058;-65
2022/07/27 03:12:09;;;;;;;6.20;1.13;;;;;;;15.60;nan;100522.50;2055745;28;20339;-65
2022/07/27 03:13:14;;;;;;;5.07;1.63;;;;;;;15.60;nan;100514.38;2055635;28;20061;-65
2022/07/27 03:14:22;;;;;;;4.70;1.23;;;;;;;15.58;nan;100522.03;2056288;28;20051;-65
2022/07/27 03:15:29;;;;;;;8.38;1.40;;;;;;;15.63;nan;100519.16;2056603;28;20422;-65
2022/07/27 03:16:36;;;;;;;7.22;1.35;;;;;;;15.63;nan;100522.66;2046616;29;20557;-66
2022/07/27 03:17:43;;;;;;;5.22;1.15;;;;;;;15.54;nan;100521.81;2048706;28;20063;-67
2022/07/27 03:18:47;;;;;;;4.38;1.00;;;;;;;15.60;nan;100519.78;2047091;29;20051;-67
2022/07/27 03:19:52;;;;;;;3.88;0.93;;;;;;;15.60;nan;100520.59;2048486;28;20031;-67
2022/07/27 03:20:56;;;;;;;3.90;1.13;;;;;;;15.61;nan;100526.81;2039756;29;20434;-67
2022/07/27 03:22:02;;;;;;;4.25;1.23;;;;;;;15.65;nan;100522.38;2036103;29;20626;-68
2022/07/27 03:23:06;;;;;;;3.55;0.90;;;;;;;15.63;nan;100521.88;2048578;28;20047;-68
2022/07/27 03:24:10;;;;;;;6.90;1.10;;;;;;;15.62;nan;100523.78;2063024;28;20050;-68
2022/07/27 03:25:13;;;;;;;4.57;1.27;;;;;;;15.61;nan;100519.50;2050545;28;20058;-68
2022/07/27 03:26:18;;;;;;;2.50;1.00;;;;;;;15.66;nan;100527.47;2056444;28;20050;-68
2022/07/27 03:27:20;;;;;;;7.20;1.02;;;;;;;15.66;nan;100529.38;2039667;29;20078;-67
2022/07/27 03:28:23;;;;;;;3.20;0.90;;;;;;;15.66;nan;100530.16;2038643;29;20407;-67
2022/07/27 03:29:25;;;;;;;3.95;1.00;;;;;;;15.82;nan;100525.16;2047964;28;20051;-67
2022/07/27 03:30:29;;;;;;;3.30;1.02;;;;;;;15.84;nan;100525.66;2040231;29;20526;-67
2022/07/27 03:31:31;;;;;;;5.70;1.25;;;;;;;15.92;nan;100527.59;2047743;28;20062;-67
2022/07/27 03:32:35;;;;;;;3.63;1.25;;;;;;;16.02;nan;100525.72;2059886;28;20042;-67
2022/07/27 03:33:37;;;;;;;3.70;0.95;;;;;;;16.14;nan;100528.56;2034645;29;20448;-67
2022/07/27 03:34:38;;;;;;;4.97;0.93;;;;;;;16.21;nan;100518.09;2039137;29;20071;-68
2022/07/27 03:35:45;;;;;;;3.72;1.25;;;;;;;16.25;nan;100521.75;2055205;28;20067;-68
2022/07/27 03:36:47;;;;;;;3.53;1.30;;;;;;;16.43;nan;100528.78;2046954;29;20051;-67
2022/07/27 03:37:49;;;;;;;4.20;0.90;;;;;;;16.47;nan;100525.44;2040445;28;20051;-68
2022/07/27 03:38:52;;;;;;;3.03;0.98;;;;;;;16.51;nan;100526.41;2055939;28;20062;-67
2022/07/27 03:39:56;;;;;;;3.17;1.00;;;;;;;16.60;nan;100524.47;2046635;29;20062;-67
2022/07/27 03:41:05;;;;;;;4.68;0.93;;;;;;;16.73;nan;100533.59;2040084;29;20481;-66
2022/07/27 03:42:11;;;;;;;7.72;1.60;;;;;;;16.81;nan;100530.91;2041337;29;20047;-68
2022/07/27 03:43:14;;;;;;;3.40;0.90;;;;;;;16.78;nan;100542.41;2056108;28;20046;-67
2022/07/27 03:44:16;;;;;;;4.65;1.10;;;;;;;16.76;nan;100531.06;2062653;28;20074;-67
2022/07/27 03:45:23;;;;;;;4.95;0.90;;;;;;;16.76;nan;100533.75;2048085;28;20051;-67
2022/07/27 03:46:26;;;;;;;2.40;1.13;;;;;;;16.68;nan;100531.84;2047256;29;20055;-67
2022/07/27 03:47:30;;;;;;;5.40;1.23;;;;;;;16.63;nan;100535.50;2047057;28;20054;-68
2022/07/27 03:48:32;;;;;;;6.72;1.13;;;;;;;16.62;nan;100533.91;2047774;29;20039;-67
2022/07/27 03:49:35;;;;;;;3.35;1.00;;;;;;;16.54;nan;100531.19;2047827;28;20140;-67
2022/07/27 03:50:41;;;;;;;4.97;1.17;;;;;;;16.54;nan;100531.19;2052236;28;20039;-67
2022/07/27 03:51:44;;;;;;;5.28;1.20;;;;;;;16.60;nan;100527.19;2047045;28;20047;-67
2022/07/27 03:52:46;;;;;;;3.78;1.42;;;;;;;16.54;nan;100526.56;2056045;28;20046;-67
2022/07/27 03:53:48;;;;;;;5.57;1.65;;;;;;;16.45;nan;100525.75;2047110;29;20058;-66
2022/07/27 03:54:51;;;;;;;9.15;1.25;;;;;;;16.39;nan;100527.84;2031547;29;20040;-66
2022/07/27 03:55:55;;;;;;;2.65;1.00;;;;;;;16.27;nan;100533.09;2027185;29;20054;-66
2022/07/27 03:57:01;;;;;;;5.45;1.00;;;;;;;16.25;nan;100529.88;2032584;29;20062;-66
2022/07/27 03:58:05;;;;;;;6.82;1.23;;;;;;;16.16;nan;100531.78;2040216;29;20059;-65
2022/07/27 03:59:07;;;;;;;4.38;1.20;;;;;;;16.09;nan;100539.59;2046403;29;20058;-66
2022/07/27 04:00:11;;;;;;;9.07;1.15;;;;;;;16.08;nan;100541.50;2048344;29;20047;-66
2022/07/27 04:01:14;;;;;;;4.10;1.00;;;;;;;16.10;nan;100538.47;2048085;29;20059;-65
2022/07/27 04:02:16;;;;;;;3.65;1.00;;;;;;;16.17;nan;100536.09;2053589;28;20039;-67
2022/07/27 04:03:18;;;;;;;2.97;0.90;;;;;;;16.40;nan;100540.28;2031567;29;20056;-66
2022/07/27 04:04:22;;;;;;;2.53;0.80;;;;;;;16.60;nan;100540.78;2032632;29;20059;-66
2022/07/27 04:05:24;;;;;;;3.85;0.93;;;;;;;16.64;nan;100541.72;2039668;29;20056;-66
2022/07/27 04:06:27;;;;;;;3.35;0.95;;;;;;;16.63;nan;100545.56;2032061;29;20044;-66
2022/07/27 04:07:29;;;;;;;7.40;0.93;;;;;;;16.66;nan;100544.91;2031915;29;20127;-66
2022/07/27 04:08:33;;;;;;;6.95;1.35;;;;;;;16.69;nan;100544.28;2047389;28;20058;-65
2022/07/27 04:09:36;;;;;;;5.72;0.82;;;;;;;16.68;nan;100548.91;2055652;28;20053;-66
2022/07/27 04:10:38;;;;;;;1.70;0.68;;;;;;;16.80;nan;100548.31;2046922;29;20058;-67
2022/07/27 04:11:43;;;;;;;9.20;1.10;;;;;;;16.79;nan;100548.63;2040440;29;20083;-67
2022/07/27 04:12:48;;;;;;;2.67;0.90;;;;;;;16.76;nan;100544.63;2048068;28;20050;-66
2022/07/27 04:13:51;;;;;;;2.42;1.02;;;;;;;16.69;nan;100549.72;2048182;28;20066;-66
2022/07/27 04:14:52;;;;;;;5.00;1.10;;;;;;;16.63;nan;100542.84;2055597;28;20119;-66
2022/07/27 04:15:57;;;;;;;5.47;1.00;;;;;;;16.59;nan;100548.13;2055421;28;20049;-67
2022/07/27 04:16:59;;;;;;;8.43;1.40;;;;;;;16.65;nan;100548.75;2043015;29;20058;-66
2022/07/27 04:18:02;;;;;;;6.57;1.00;;;;;;;16.51;nan;100548.09;2039492;29;20101;-66
2022/07/27 04:19:08;;;;;;;4.28;1.00;;;;;;;16.50;nan;100546.53;2040172;29;20051;-66
2022/07/27 04:20:10;;;;;;;6.55;0.88;;;;;;;16.48;nan;100543.31;2047341;29;20396;-66
2022/07/27 04:21:17;;;;;;;5.50;1.05;;;;;;;16.58;nan;100541.09;2040056;29;20094;-67
2022/07/27 04:22:22;;;;;;;4.80;1.25;;;;;;;16.82;nan;100548.78;2031509;29;20055;-67
2022/07/27 04:23:24;;;;;;;4.25;1.42;;;;;;;17.03;nan;100559.00;2025471;29;20063;-66
2022/07/27 04:24:25;;;;;;;4.05;1.30;;;;;;;17.16;nan;100551.78;2031720;29;20067;-66
2022/07/27 04:25:30;;;;;;;3.00;0.88;;;;;;;17.18;nan;100544.91;2036550;28;20435;-65
2022/07/27 04:26:32;;;;;;;6.38;1.00;;;;;;;17.18;nan;100549.53;2031607;29;20052;-67
2022/07/27 04:27:41;;;;;;;3.38;0.73;;;;;;;17.36;nan;100549.16;2026575;29;20059;-66
2022/07/27 04:28:45;;;;;;;6.47;1.20;;;;;;;17.42;nan;100549.00;2045939;28;20086;-67
2022/07/27 04:29:47;;;;;;;2.00;0.93;;;;;;;17.59;nan;100552.47;2038494;29;20055;-66
2022/07/27 04:30:51;;;;;;;4.32;0.82;;;;;;;17.81;nan;100550.63;2031986;29;20477;-66
2022/07/27 04:31:53;;;;;;;4.28;0.98;;;;;;;17.95;nan;100553.13;2032275;29;20060;-66
2022/07/27 04:32:55;;;;;;;4.90;1.35;;;;;;;18.09;nan;100548.22;2039555;29;20066;-66
2022/07/27 04:34:00;;;;;;;5.95;1.55;;;;;;;18.11;nan;100551.44;2038611;29;20047;-65
2022/07/27 04:35:01;;;;;;;3.20;0.90;;;;;;;18.14;nan;100553.50;2039501;29;20032;-66
2022/07/27 04:36:08;;;;;;;8.18;1.10;;;;;;;17.95;nan;100539.53;2037661;29;20050;-65
2022/07/27 04:37:11;;;;;;;9.93;1.15;;;;;;;17.96;nan;100543.84;2047062;28;20051;-66
2022/07/27 04:38:15;;;;;;;2.53;1.00;;;;;;;18.19;nan;100545.16;2045356;29;20062;-66
2022/07/27 04:39:19;;;;;;;5.25;1.08;;;;;;;18.38;nan;100552.88;2043555;29;20063;-66
2022/07/27 04:40:21;;;;;;;2.22;0.88;;;;;;;18.45;nan;100557.78;2046953;29;20050;-66
2022/07/27 04:41:23;;;;;;;5.80;1.00;;;;;;;18.40;nan;100549.81;2033799;29;20040;-67
2022/07/27 04:42:25;;;;;;;5.65;1.42;;;;;;;18.30;nan;100557.22;2031612;29;20060;-67
2022/07/27 04:43:27;;;;;;;6.20;1.30;;;;;;;18.45;nan;100558.56;2039048;28;20048;-66
2022/07/27 04:44:29;;;;;;;3.80;0.80;;;;;;;18.42;nan;100556.53;2045382;29;20042;-66
2022/07/27 04:45:31;;;;;;;2.47;0.88;;;;;;;18.34;nan;100556.56;2038390;29;20047;-67
2022/07/27 04:46:35;;;;;;;3.25;0.90;;;;;;;18.17;nan;100557.50;2039315;29;20046;-67
2022/07/27 04:47:38;;;;;;;4.25;1.15;;;;;;;18.15;nan;100560.53;2039495;29;20500;-66
2022/07/27 04:48:40;;;;;;;7.03;1.30;;;;;;;18.13;nan;100556.56;2038878;29;20048;-65
2022/07/27 04:49:46;;;;;;;4.22;1.00;;;;;;;18.11;nan;100553.34;2039399;29;20082;-66
2022/07/27 04:50:49;;;;;;;4.07;1.10;;;;;;;18.19;nan;100553.31;2047209;29;20058;-66
2022/07/27 04:51:51;;;;;;;4.57;1.20;;;;;;;18.32;nan;100559.63;2047373;28;20392;-67
2022/07/27 04:52:53;;;;;;;6.40;1.20;;;;;;;18.49;nan;100558.72;2047072;28;20059;-67
2022/07/27 04:53:57;;;;;;;4.72;1.00;;;;;;;18.78;nan;100562.50;2030911;29;20075;-67
2022/07/27 04:55:06;;;;;;;4.43;0.73;;;;;;;18.96;nan;100555.78;2033436;29;20056;-67
2022/07/27 04:56:09;;;;;;;3.70;0.98;;;;;;;19.07;nan;100545.25;2034144;28;20526;-67
2022/07/27 04:57:12;;;;;;;5.80;0.95;;;;;;;19.12;nan;100548.56;2030910;29;20367;-69
2022/07/27 04:58:16;;;;;;;7.10;1.00;;;;;;;19.01;nan;100541.97;2031103;29;20059;-68
2022/07/27 04:59:20;;;;;;;7.72;1.27;;;;;;;18.86;nan;100543.38;2023072;29;20060;-68
2022/07/27 05:00:24;;;;;;;5.50;1.20;;;;;;;18.75;nan;100545.69;2015634;29;20041;-69
2022/07/27 05:01:26;;;;;;;6.00;0.90;;;;;;;18.81;nan;100545.50;2024218;29;20048;-67
2022/07/27 05:02:30;;;;;;;4.50;1.13;;;;;;;18.92;nan;100538.53;2037941;29;20055;-67
2022/07/27 05:03:32;;;;;;;5.68;0.95;;;;;;;19.08;nan;100546.88;2031634;29;20047;-68
2022/07/27 05:04:37;;;;;;;3.22;1.23;;;;;;;19.08;nan;100547.66;2030198;29;20063;-68
2022/07/27 05:05:39;;;;;;;2.55;0.80;;;;;;;19.04;nan;100552.19;2032263;29;20424;-68
2022/07/27 05:06:41;;;;;;;4.85;0.70;;;;;;;19.15;nan;100558.00;2031318;29;20157;-67
2022/07/27 05:07:46;;;;;;;10.02;1.20;;;;;;;19.20;nan;100553.16;2031781;29;20047;-74
2022/07/27 05:08:50;;;;;;;9.98;1.40;;;;;;;19.39;nan;100549.09;2031471;29;20061;-71
2022/07/27 05:09:53;;;;;;;6.53;1.00;;;;;;;19.44;nan;100554.31;2031679;29;20036;-66
2022/07/27 05:10:57;;;;;;;2.33;0.70;;;;;;;19.40;nan;100564.31;2032276;29;20048;-67
2022/07/27 05:11:59;;;;;;;8.80;0.93;;;;;;;19.52;nan;100564.34;2030769;29;20044;-70